sensor_id;sensor_type;location;lat;lon;timestamp;P1;durP1;ratioP1;P2;durP2;ratioP2
70543;SDS011;58097;48.364;-1.224;2023-01-29T00:01:51;9.30;;;5.20;;
70543;SDS011;58097;48.364;-1.224;2023-01-29T00:04:16;10.70;;;5.55;;
70543;SDS011;58097;48.364;-1.224;2023-01-29T00:06:42;11.75;;;5.35;;
70543;SDS011;58097;48.364;-1.224;2023-01-29T00:09:08;7.70;;;4.97;;
70543;SDS011;58097;48.364;-1.224;2023-01-29T00:11:34;8.02;;;5.53;;
70543;SDS011;58097;48.364;-1.224;2023-01-29T00:14:00;9.48;;;5.18;;
70543;SDS011;58097;48.364;-1.224;2023-01-29T00:16:25;7.88;;;4.75;;
70543;SDS011;58097;48.364;-1.224;2023-01-29T00:18:50;9.95;;;5.20;;
70543;SDS011;58097;48.364;-1.224;2023-01-29T00:21:17;4.72;;;3.78;;
70543;SDS011;58097;48.364;-1.224;2023-01-29T00:23:44;14.15;;;4.88;;
70543;SDS011;58097;48.364;-1.224;2023-01-29T00:26:10;7.93;;;5.32;;
70543;SDS011;58097;48.364;-1.224;2023-01-29T00:28:36;7.18;;;4.90;;
70543;SDS011;58097;48.364;-1.224;2023-01-29T00:31:05;8.55;;;4.85;;
70543;SDS011;58097;48.364;-1.224;2023-01-29T00:33:34;6.40;;;4.80;;
70543;SDS011;58097;48.364;-1.224;2023-01-29T00:36:03;5.75;;;4.20;;
70543;SDS011;58097;48.364;-1.224;2023-01-29T00:38:31;6.75;;;5.18;;
70543;SDS011;58097;48.364;-1.224;2023-01-29T00:40:57;9.75;;;4.28;;
70543;SDS011;58097;48.364;-1.224;2023-01-29T00:43:47;11.30;;;5.30;;
70543;SDS011;58097;48.364;-1.224;2023-01-29T00:46:31;6.93;;;4.00;;
70543;SDS011;58097;48.364;-1.224;2023-01-29T00:48:56;6.38;;;3.90;;
70543;SDS011;58097;48.364;-1.224;2023-01-29T00:51:22;9.15;;;5.20;;
70543;SDS011;58097;48.364;-1.224;2023-01-29T00:53:47;5.97;;;4.28;;
70543;SDS011;58097;48.364;-1.224;2023-01-29T00:56:12;8.15;;;5.05;;
70543;SDS011;58097;48.364;-1.224;2023-01-29T00:58:37;5.35;;;4.57;;
70543;SDS011;58097;48.364;-1.224;2023-01-29T01:01:03;8.55;;;4.20;;
70543;SDS011;58097;48.364;-1.224;2023-01-29T01:03:28;4.82;;;3.83;;
70543;SDS011;58097;48.364;-1.224;2023-01-29T01:06:07;6.50;;;4.80;;
70543;SDS011;58097;48.364;-1.224;2023-01-29T01:08:34;6.55;;;4.07;;
70543;SDS011;58097;48.364;-1.224;2023-01-29T01:11:18;4.85;;;3.60;;
70543;SDS011;58097;48.364;-1.224;2023-01-29T01:13:43;6.68;;;4.45;;
70543;SDS011;58097;48.364;-1.224;2023-01-29T01:16:13;6.57;;;3.90;;
70543;SDS011;58097;48.364;-1.224;2023-01-29T01:21:06;10.40;;;4.60;;
70543;SDS011;58097;48.364;-1.224;2023-01-29T01:23:32;6.25;;;3.47;;
70543;SDS011;58097;48.364;-1.224;2023-01-29T01:25:58;6.43;;;4.70;;
70543;SDS011;58097;48.364;-1.224;2023-01-29T01:28:24;6.63;;;3.80;;
70543;SDS011;58097;48.364;-1.224;2023-01-29T01:30:50;6.38;;;4.35;;
70543;SDS011;58097;48.364;-1.224;2023-01-29T01:33:15;7.72;;;3.63;;
70543;SDS011;58097;48.364;-1.224;2023-01-29T01:35:41;7.45;;;4.22;;
70543;SDS011;58097;48.364;-1.224;2023-01-29T01:38:06;5.78;;;4.35;;
70543;SDS011;58097;48.364;-1.224;2023-01-29T01:40:32;8.68;;;4.22;;
70543;SDS011;58097;48.364;-1.224;2023-01-29T01:42:58;8.63;;;4.72;;
70543;SDS011;58097;48.364;-1.224;2023-01-29T01:48:03;7.60;;;5.18;;
70543;SDS011;58097;48.364;-1.224;2023-01-29T01:50:33;5.32;;;3.78;;
70543;SDS011;58097;48.364;-1.224;2023-01-29T01:53:07;5.82;;;3.75;;
70543;SDS011;58097;48.364;-1.224;2023-01-29T01:55:36;8.52;;;4.30;;
70543;SDS011;58097;48.364;-1.224;2023-01-29T01:58:11;4.25;;;3.53;;
70543;SDS011;58097;48.364;-1.224;2023-01-29T02:00:40;5.78;;;4.30;;
70543;SDS011;58097;48.364;-1.224;2023-01-29T02:03:06;5.43;;;4.25;;
70543;SDS011;58097;48.364;-1.224;2023-01-29T02:05:53;8.55;;;4.85;;
70543;SDS011;58097;48.364;-1.224;2023-01-29T02:08:56;5.38;;;3.90;;
70543;SDS011;58097;48.364;-1.224;2023-01-29T02:11:44;10.10;;;4.43;;
70543;SDS011;58097;48.364;-1.224;2023-01-29T02:14:10;7.85;;;4.90;;
70543;SDS011;58097;48.364;-1.224;2023-01-29T02:16:36;8.10;;;4.40;;
70543;SDS011;58097;48.364;-1.224;2023-01-29T02:19:03;5.80;;;4.07;;
70543;SDS011;58097;48.364;-1.224;2023-01-29T02:27:18;7.72;;;4.30;;
70543;SDS011;58097;48.364;-1.224;2023-01-29T02:33:13;7.35;;;4.15;;
70543;SDS011;58097;48.364;-1.224;2023-01-29T02:38:44;5.53;;;3.33;;
70543;SDS011;58097;48.364;-1.224;2023-01-29T02:43:52;5.20;;;3.88;;
70543;SDS011;58097;48.364;-1.224;2023-01-29T02:47:25;6.57;;;3.72;;
70543;SDS011;58097;48.364;-1.224;2023-01-29T02:49:24;13.15;;;4.40;;
70543;SDS011;58097;48.364;-1.224;2023-01-29T02:57:27;6.22;;;3.45;;
70543;SDS011;58097;48.364;-1.224;2023-01-29T03:00:06;6.65;;;4.18;;
70543;SDS011;58097;48.364;-1.224;2023-01-29T03:02:46;4.25;;;3.58;;
70543;SDS011;58097;48.364;-1.224;2023-01-29T03:05:17;7.57;;;4.60;;
70543;SDS011;58097;48.364;-1.224;2023-01-29T03:08:07;8.05;;;3.50;;
70543;SDS011;58097;48.364;-1.224;2023-01-29T03:10:39;7.00;;;3.53;;
70543;SDS011;58097;48.364;-1.224;2023-01-29T03:13:18;5.45;;;4.15;;
70543;SDS011;58097;48.364;-1.224;2023-01-29T03:15:51;9.32;;;4.15;;
70543;SDS011;58097;48.364;-1.224;2023-01-29T03:18:25;7.97;;;4.47;;
70543;SDS011;58097;48.364;-1.224;2023-01-29T03:20:56;8.05;;;4.18;;
70543;SDS011;58097;48.364;-1.224;2023-01-29T03:23:27;6.88;;;4.65;;
70543;SDS011;58097;48.364;-1.224;2023-01-29T03:26:14;6.25;;;4.97;;
70543;SDS011;58097;48.364;-1.224;2023-01-29T03:29:02;9.13;;;4.43;;
70543;SDS011;58097;48.364;-1.224;2023-01-29T03:31:47;6.35;;;4.93;;
70543;SDS011;58097;48.364;-1.224;2023-01-29T03:34:40;9.60;;;4.75;;
70543;SDS011;58097;48.364;-1.224;2023-01-29T03:39:58;13.10;;;5.10;;
70543;SDS011;58097;48.364;-1.224;2023-01-29T03:42:28;5.75;;;4.57;;
70543;SDS011;58097;48.364;-1.224;2023-01-29T03:45:15;5.68;;;4.30;;
70543;SDS011;58097;48.364;-1.224;2023-01-29T03:48:15;4.43;;;4.03;;
70543;SDS011;58097;48.364;-1.224;2023-01-29T03:59:32;6.47;;;4.78;;
70543;SDS011;58097;48.364;-1.224;2023-01-29T04:02:06;7.38;;;5.53;;
70543;SDS011;58097;48.364;-1.224;2023-01-29T04:04:37;5.80;;;4.50;;
70543;SDS011;58097;48.364;-1.224;2023-01-29T04:07:15;8.57;;;5.07;;
70543;SDS011;58097;48.364;-1.224;2023-01-29T04:09:49;5.93;;;4.28;;
70543;SDS011;58097;48.364;-1.224;2023-01-29T04:12:19;8.10;;;3.97;;
70543;SDS011;58097;48.364;-1.224;2023-01-29T04:14:50;6.80;;;3.90;;
70543;SDS011;58097;48.364;-1.224;2023-01-29T04:17:20;4.65;;;4.03;;
70543;SDS011;58097;48.364;-1.224;2023-01-29T04:19:48;6.45;;;4.68;;
70543;SDS011;58097;48.364;-1.224;2023-01-29T04:24:43;5.55;;;4.88;;
70543;SDS011;58097;48.364;-1.224;2023-01-29T04:41:28;10.15;;;6.32;;
70543;SDS011;58097;48.364;-1.224;2023-01-29T04:49:44;8.80;;;6.53;;
70543;SDS011;58097;48.364;-1.224;2023-01-29T05:00:58;8.57;;;5.85;;
70543;SDS011;58097;48.364;-1.224;2023-01-29T05:03:17;10.13;;;6.18;;
70543;SDS011;58097;48.364;-1.224;2023-01-29T05:05:47;9.88;;;6.95;;
70543;SDS011;58097;48.364;-1.224;2023-01-29T05:08:15;8.32;;;6.40;;
70543;SDS011;58097;48.364;-1.224;2023-01-29T05:10:43;9.88;;;5.95;;
70543;SDS011;58097;48.364;-1.224;2023-01-29T05:13:12;11.40;;;6.35;;
70543;SDS011;58097;48.364;-1.224;2023-01-29T05:16:01;10.00;;;6.18;;
70543;SDS011;58097;48.364;-1.224;2023-01-29T05:18:28;13.20;;;6.28;;
70543;SDS011;58097;48.364;-1.224;2023-01-29T05:20:55;9.43;;;6.70;;
70543;SDS011;58097;48.364;-1.224;2023-01-29T05:23:22;8.38;;;6.28;;
70543;SDS011;58097;48.364;-1.224;2023-01-29T05:25:48;9.75;;;6.82;;
70543;SDS011;58097;48.364;-1.224;2023-01-29T05:28:15;7.78;;;6.28;;
70543;SDS011;58097;48.364;-1.224;2023-01-29T05:30:51;10.32;;;6.40;;
70543;SDS011;58097;48.364;-1.224;2023-01-29T05:33:25;8.45;;;5.82;;
70543;SDS011;58097;48.364;-1.224;2023-01-29T05:35:55;16.85;;;6.55;;
70543;SDS011;58097;48.364;-1.224;2023-01-29T05:38:23;10.77;;;7.07;;
70543;SDS011;58097;48.364;-1.224;2023-01-29T05:40:48;8.35;;;7.03;;
70543;SDS011;58097;48.364;-1.224;2023-01-29T05:43:15;9.25;;;7.40;;
70543;SDS011;58097;48.364;-1.224;2023-01-29T05:45:52;11.80;;;8.07;;
70543;SDS011;58097;48.364;-1.224;2023-01-29T05:48:19;10.18;;;7.05;;
70543;SDS011;58097;48.364;-1.224;2023-01-29T05:50:44;18.70;;;9.10;;
70543;SDS011;58097;48.364;-1.224;2023-01-29T05:53:10;10.63;;;8.20;;
70543;SDS011;58097;48.364;-1.224;2023-01-29T05:55:35;12.32;;;7.50;;
70543;SDS011;58097;48.364;-1.224;2023-01-29T05:58:00;12.93;;;9.10;;
70543;SDS011;58097;48.364;-1.224;2023-01-29T06:00:26;13.57;;;7.32;;
70543;SDS011;58097;48.364;-1.224;2023-01-29T06:02:51;15.13;;;9.18;;
70543;SDS011;58097;48.364;-1.224;2023-01-29T06:05:16;11.80;;;8.13;;
70543;SDS011;58097;48.364;-1.224;2023-01-29T06:07:42;10.35;;;7.72;;
70543;SDS011;58097;48.364;-1.224;2023-01-29T06:10:13;9.82;;;7.15;;
70543;SDS011;58097;48.364;-1.224;2023-01-29T06:12:40;16.15;;;9.23;;
70543;SDS011;58097;48.364;-1.224;2023-01-29T06:15:06;13.35;;;8.90;;
70543;SDS011;58097;48.364;-1.224;2023-01-29T06:17:32;15.95;;;8.40;;
70543;SDS011;58097;48.364;-1.224;2023-01-29T06:19:57;13.60;;;9.00;;
70543;SDS011;58097;48.364;-1.224;2023-01-29T06:22:22;15.50;;;10.57;;
70543;SDS011;58097;48.364;-1.224;2023-01-29T06:24:48;18.52;;;9.82;;
70543;SDS011;58097;48.364;-1.224;2023-01-29T06:27:13;17.58;;;9.30;;
70543;SDS011;58097;48.364;-1.224;2023-01-29T06:29:38;28.67;;;13.60;;
70543;SDS011;58097;48.364;-1.224;2023-01-29T06:32:04;28.98;;;14.60;;
70543;SDS011;58097;48.364;-1.224;2023-01-29T06:34:29;31.00;;;14.75;;
70543;SDS011;58097;48.364;-1.224;2023-01-29T06:36:54;29.92;;;14.98;;
70543;SDS011;58097;48.364;-1.224;2023-01-29T06:39:20;23.95;;;11.52;;
70543;SDS011;58097;48.364;-1.224;2023-01-29T06:41:45;20.75;;;11.10;;
70543;SDS011;58097;48.364;-1.224;2023-01-29T06:44:10;22.58;;;11.18;;
70543;SDS011;58097;48.364;-1.224;2023-01-29T06:46:36;20.48;;;11.05;;
70543;SDS011;58097;48.364;-1.224;2023-01-29T06:49:01;15.88;;;10.45;;
70543;SDS011;58097;48.364;-1.224;2023-01-29T06:51:27;15.23;;;10.20;;
70543;SDS011;58097;48.364;-1.224;2023-01-29T06:53:52;15.52;;;10.68;;
70543;SDS011;58097;48.364;-1.224;2023-01-29T06:56:20;19.08;;;10.43;;
70543;SDS011;58097;48.364;-1.224;2023-01-29T06:58:46;17.92;;;10.55;;
70543;SDS011;58097;48.364;-1.224;2023-01-29T07:01:12;16.60;;;10.43;;
70543;SDS011;58097;48.364;-1.224;2023-01-29T07:03:37;19.42;;;10.63;;
70543;SDS011;58097;48.364;-1.224;2023-01-29T07:06:03;20.90;;;10.93;;
70543;SDS011;58097;48.364;-1.224;2023-01-29T07:08:29;20.77;;;11.02;;
70543;SDS011;58097;48.364;-1.224;2023-01-29T07:11:04;14.65;;;9.38;;
70543;SDS011;58097;48.364;-1.224;2023-01-29T07:13:30;15.43;;;10.30;;
70543;SDS011;58097;48.364;-1.224;2023-01-29T07:15:59;14.65;;;10.25;;
70543;SDS011;58097;48.364;-1.224;2023-01-29T07:18:26;15.93;;;9.88;;
70543;SDS011;58097;48.364;-1.224;2023-01-29T07:20:52;15.77;;;9.18;;
70543;SDS011;58097;48.364;-1.224;2023-01-29T07:23:18;16.23;;;9.68;;
70543;SDS011;58097;48.364;-1.224;2023-01-29T07:25:43;13.68;;;9.30;;
70543;SDS011;58097;48.364;-1.224;2023-01-29T07:28:09;10.68;;;8.85;;
70543;SDS011;58097;48.364;-1.224;2023-01-29T07:30:35;15.88;;;8.73;;
70543;SDS011;58097;48.364;-1.224;2023-01-29T07:33:04;12.60;;;8.27;;
70543;SDS011;58097;48.364;-1.224;2023-01-29T07:35:34;16.30;;;9.40;;
70543;SDS011;58097;48.364;-1.224;2023-01-29T07:38:01;12.20;;;8.95;;
70543;SDS011;58097;48.364;-1.224;2023-01-29T07:40:26;14.80;;;9.55;;
70543;SDS011;58097;48.364;-1.224;2023-01-29T07:42:56;12.80;;;9.35;;
70543;SDS011;58097;48.364;-1.224;2023-01-29T07:45:22;12.20;;;9.27;;
70543;SDS011;58097;48.364;-1.224;2023-01-29T07:47:50;17.45;;;10.02;;
70543;SDS011;58097;48.364;-1.224;2023-01-29T07:50:17;15.80;;;10.18;;
70543;SDS011;58097;48.364;-1.224;2023-01-29T07:52:42;17.20;;;10.07;;
70543;SDS011;58097;48.364;-1.224;2023-01-29T07:55:08;15.27;;;9.48;;
70543;SDS011;58097;48.364;-1.224;2023-01-29T07:57:33;15.68;;;9.88;;
70543;SDS011;58097;48.364;-1.224;2023-01-29T07:59:58;10.85;;;8.40;;
70543;SDS011;58097;48.364;-1.224;2023-01-29T08:02:24;14.52;;;9.73;;
70543;SDS011;58097;48.364;-1.224;2023-01-29T08:04:49;15.45;;;9.18;;
70543;SDS011;58097;48.364;-1.224;2023-01-29T08:07:14;17.40;;;9.85;;
70543;SDS011;58097;48.364;-1.224;2023-01-29T08:09:40;19.67;;;11.27;;
70543;SDS011;58097;48.364;-1.224;2023-01-29T08:12:05;15.25;;;10.23;;
70543;SDS011;58097;48.364;-1.224;2023-01-29T08:14:31;16.88;;;9.55;;
70543;SDS011;58097;48.364;-1.224;2023-01-29T08:16:56;15.70;;;9.73;;
70543;SDS011;58097;48.364;-1.224;2023-01-29T08:19:21;14.82;;;9.65;;
70543;SDS011;58097;48.364;-1.224;2023-01-29T08:21:47;15.55;;;10.18;;
70543;SDS011;58097;48.364;-1.224;2023-01-29T08:24:12;16.05;;;10.43;;
70543;SDS011;58097;48.364;-1.224;2023-01-29T08:26:37;17.88;;;10.70;;
70543;SDS011;58097;48.364;-1.224;2023-01-29T08:29:03;17.73;;;10.00;;
70543;SDS011;58097;48.364;-1.224;2023-01-29T08:31:28;19.67;;;11.70;;
70543;SDS011;58097;48.364;-1.224;2023-01-29T08:33:53;21.17;;;10.80;;
70543;SDS011;58097;48.364;-1.224;2023-01-29T08:36:19;13.90;;;9.70;;
70543;SDS011;58097;48.364;-1.224;2023-01-29T08:38:45;16.38;;;10.02;;
70543;SDS011;58097;48.364;-1.224;2023-01-29T08:41:11;19.17;;;9.57;;
70543;SDS011;58097;48.364;-1.224;2023-01-29T08:43:36;17.10;;;10.02;;
70543;SDS011;58097;48.364;-1.224;2023-01-29T08:46:05;16.90;;;10.13;;
70543;SDS011;58097;48.364;-1.224;2023-01-29T08:48:31;17.70;;;10.05;;
70543;SDS011;58097;48.364;-1.224;2023-01-29T08:50:58;16.90;;;9.90;;
70543;SDS011;58097;48.364;-1.224;2023-01-29T08:53:24;17.35;;;10.63;;
70543;SDS011;58097;48.364;-1.224;2023-01-29T08:55:50;18.08;;;10.18;;
70543;SDS011;58097;48.364;-1.224;2023-01-29T08:58:15;15.82;;;9.57;;
70543;SDS011;58097;48.364;-1.224;2023-01-29T09:00:40;13.75;;;9.77;;
70543;SDS011;58097;48.364;-1.224;2023-01-29T09:03:06;17.58;;;9.77;;
70543;SDS011;58097;48.364;-1.224;2023-01-29T09:05:32;12.63;;;9.48;;
70543;SDS011;58097;48.364;-1.224;2023-01-29T09:07:58;14.23;;;9.38;;
70543;SDS011;58097;48.364;-1.224;2023-01-29T09:10:24;15.07;;;8.95;;
70543;SDS011;58097;48.364;-1.224;2023-01-29T09:12:50;17.10;;;9.25;;
70543;SDS011;58097;48.364;-1.224;2023-01-29T09:15:15;14.02;;;9.38;;
70543;SDS011;58097;48.364;-1.224;2023-01-29T09:17:40;17.92;;;9.88;;
70543;SDS011;58097;48.364;-1.224;2023-01-29T09:20:07;12.60;;;9.13;;
70543;SDS011;58097;48.364;-1.224;2023-01-29T09:22:33;12.82;;;9.18;;
70543;SDS011;58097;48.364;-1.224;2023-01-29T09:24:59;13.77;;;9.35;;
70543;SDS011;58097;48.364;-1.224;2023-01-29T09:27:24;17.58;;;9.45;;
70543;SDS011;58097;48.364;-1.224;2023-01-29T09:29:50;17.00;;;10.23;;
70543;SDS011;58097;48.364;-1.224;2023-01-29T09:32:15;14.55;;;8.88;;
70543;SDS011;58097;48.364;-1.224;2023-01-29T09:34:41;16.70;;;10.05;;
70543;SDS011;58097;48.364;-1.224;2023-01-29T09:37:06;17.92;;;10.52;;
70543;SDS011;58097;48.364;-1.224;2023-01-29T09:39:32;16.58;;;9.85;;
70543;SDS011;58097;48.364;-1.224;2023-01-29T09:44:50;16.42;;;10.15;;
70543;SDS011;58097;48.364;-1.224;2023-01-29T09:47:22;18.27;;;10.90;;
70543;SDS011;58097;48.364;-1.224;2023-01-29T09:50:00;16.67;;;11.20;;
70543;SDS011;58097;48.364;-1.224;2023-01-29T09:52:39;17.65;;;10.43;;
70543;SDS011;58097;48.364;-1.224;2023-01-29T09:55:15;13.98;;;10.48;;
70543;SDS011;58097;48.364;-1.224;2023-01-29T09:57:57;13.05;;;9.93;;
70543;SDS011;58097;48.364;-1.224;2023-01-29T10:03:46;15.18;;;10.32;;
70543;SDS011;58097;48.364;-1.224;2023-01-29T10:22:48;19.42;;;10.82;;
70543;SDS011;58097;48.364;-1.224;2023-01-29T10:25:20;15.93;;;9.95;;
70543;SDS011;58097;48.364;-1.224;2023-01-29T10:27:50;17.35;;;10.52;;
70543;SDS011;58097;48.364;-1.224;2023-01-29T10:32:53;15.98;;;10.82;;
70543;SDS011;58097;48.364;-1.224;2023-01-29T10:35:21;19.30;;;12.05;;
70543;SDS011;58097;48.364;-1.224;2023-01-29T10:37:52;18.48;;;11.82;;
70543;SDS011;58097;48.364;-1.224;2023-01-29T10:57:01;20.92;;;11.85;;
70543;SDS011;58097;48.364;-1.224;2023-01-29T10:59:55;21.30;;;12.38;;
70543;SDS011;58097;48.364;-1.224;2023-01-29T11:02:42;22.52;;;12.38;;
70543;SDS011;58097;48.364;-1.224;2023-01-29T11:05:54;18.27;;;12.95;;
70543;SDS011;58097;48.364;-1.224;2023-01-29T11:08:02;18.27;;;12.80;;
70543;SDS011;58097;48.364;-1.224;2023-01-29T11:10:32;19.58;;;12.70;;
70543;SDS011;58097;48.364;-1.224;2023-01-29T11:13:03;25.08;;;13.07;;
70543;SDS011;58097;48.364;-1.224;2023-01-29T11:15:30;15.70;;;10.70;;
70543;SDS011;58097;48.364;-1.224;2023-01-29T11:20:37;15.60;;;10.50;;
70543;SDS011;58097;48.364;-1.224;2023-01-29T11:23:03;17.15;;;10.45;;
70543;SDS011;58097;48.364;-1.224;2023-01-29T11:25:29;16.42;;;9.88;;
70543;SDS011;58097;48.364;-1.224;2023-01-29T11:28:00;15.55;;;9.65;;
70543;SDS011;58097;48.364;-1.224;2023-01-29T11:30:38;15.65;;;10.48;;
70543;SDS011;58097;48.364;-1.224;2023-01-29T11:35:45;16.00;;;9.70;;
70543;SDS011;58097;48.364;-1.224;2023-01-29T11:38:23;11.73;;;9.05;;
70543;SDS011;58097;48.364;-1.224;2023-01-29T11:40:50;20.02;;;10.55;;
70543;SDS011;58097;48.364;-1.224;2023-01-29T11:45:42;14.93;;;10.65;;
70543;SDS011;58097;48.364;-1.224;2023-01-29T11:48:18;14.85;;;9.20;;
70543;SDS011;58097;48.364;-1.224;2023-01-29T11:50:52;21.00;;;10.68;;
70543;SDS011;58097;48.364;-1.224;2023-01-29T11:53:22;27.20;;;13.45;;
70543;SDS011;58097;48.364;-1.224;2023-01-29T11:55:57;20.88;;;11.15;;
70543;SDS011;58097;48.364;-1.224;2023-01-29T11:58:26;20.15;;;10.85;;
70543;SDS011;58097;48.364;-1.224;2023-01-29T12:00:54;21.70;;;11.85;;
70543;SDS011;58097;48.364;-1.224;2023-01-29T12:06:23;17.58;;;10.95;;
70543;SDS011;58097;48.364;-1.224;2023-01-29T12:09:00;18.30;;;10.48;;
70543;SDS011;58097;48.364;-1.224;2023-01-29T12:11:32;13.48;;;9.30;;
70543;SDS011;58097;48.364;-1.224;2023-01-29T12:14:00;13.57;;;9.02;;
70543;SDS011;58097;48.364;-1.224;2023-01-29T12:16:28;14.63;;;10.05;;
70543;SDS011;58097;48.364;-1.224;2023-01-29T12:21:46;15.85;;;10.38;;
70543;SDS011;58097;48.364;-1.224;2023-01-29T12:24:30;19.65;;;10.50;;
70543;SDS011;58097;48.364;-1.224;2023-01-29T12:29:41;17.20;;;10.50;;
70543;SDS011;58097;48.364;-1.224;2023-01-29T12:32:38;18.70;;;11.45;;
70543;SDS011;58097;48.364;-1.224;2023-01-29T12:35:08;17.83;;;10.63;;
70543;SDS011;58097;48.364;-1.224;2023-01-29T12:37:57;14.50;;;10.35;;
70543;SDS011;58097;48.364;-1.224;2023-01-29T12:40:33;17.83;;;9.70;;
70543;SDS011;58097;48.364;-1.224;2023-01-29T12:43:26;18.55;;;10.82;;
70543;SDS011;58097;48.364;-1.224;2023-01-29T12:45:57;14.65;;;10.15;;
70543;SDS011;58097;48.364;-1.224;2023-01-29T12:48:26;14.73;;;9.55;;
70543;SDS011;58097;48.364;-1.224;2023-01-29T12:50:59;20.30;;;10.77;;
70543;SDS011;58097;48.364;-1.224;2023-01-29T12:53:31;16.75;;;10.32;;
70543;SDS011;58097;48.364;-1.224;2023-01-29T12:56:04;16.17;;;10.18;;
70543;SDS011;58097;48.364;-1.224;2023-01-29T12:58:42;17.40;;;10.93;;
70543;SDS011;58097;48.364;-1.224;2023-01-29T13:01:12;18.92;;;10.23;;
70543;SDS011;58097;48.364;-1.224;2023-01-29T13:03:54;15.50;;;10.73;;
70543;SDS011;58097;48.364;-1.224;2023-01-29T13:06:24;23.67;;;10.27;;
70543;SDS011;58097;48.364;-1.224;2023-01-29T13:08:53;17.70;;;11.40;;
70543;SDS011;58097;48.364;-1.224;2023-01-29T13:11:28;16.55;;;11.32;;
70543;SDS011;58097;48.364;-1.224;2023-01-29T13:16:36;21.25;;;11.57;;
70543;SDS011;58097;48.364;-1.224;2023-01-29T13:19:10;18.42;;;11.02;;
70543;SDS011;58097;48.364;-1.224;2023-01-29T13:21:43;30.77;;;16.75;;
70543;SDS011;58097;48.364;-1.224;2023-01-29T13:24:19;21.38;;;13.48;;
70543;SDS011;58097;48.364;-1.224;2023-01-29T13:26:47;16.13;;;11.02;;
70543;SDS011;58097;48.364;-1.224;2023-01-29T13:29:23;24.92;;;14.95;;
70543;SDS011;58097;48.364;-1.224;2023-01-29T13:31:54;23.77;;;13.32;;
70543;SDS011;58097;48.364;-1.224;2023-01-29T13:34:23;21.20;;;12.02;;
70543;SDS011;58097;48.364;-1.224;2023-01-29T13:36:56;18.50;;;11.50;;
70543;SDS011;58097;48.364;-1.224;2023-01-29T13:41:54;20.48;;;12.23;;
70543;SDS011;58097;48.364;-1.224;2023-01-29T13:44:23;21.52;;;12.13;;
70543;SDS011;58097;48.364;-1.224;2023-01-29T13:46:59;22.75;;;11.80;;
70543;SDS011;58097;48.364;-1.224;2023-01-29T13:49:28;19.30;;;11.15;;
70543;SDS011;58097;48.364;-1.224;2023-01-29T13:51:57;19.83;;;11.93;;
70543;SDS011;58097;48.364;-1.224;2023-01-29T13:54:23;16.20;;;10.30;;
70543;SDS011;58097;48.364;-1.224;2023-01-29T13:59:22;22.50;;;12.13;;
70543;SDS011;58097;48.364;-1.224;2023-01-29T14:02:41;20.00;;;11.68;;
70543;SDS011;58097;48.364;-1.224;2023-01-29T14:05:31;21.77;;;12.30;;
70543;SDS011;58097;48.364;-1.224;2023-01-29T14:07:54;22.27;;;12.63;;
70543;SDS011;58097;48.364;-1.224;2023-01-29T14:10:28;22.92;;;12.75;;
70543;SDS011;58097;48.364;-1.224;2023-01-29T14:15:32;25.65;;;15.30;;
70543;SDS011;58097;48.364;-1.224;2023-01-29T14:23:54;20.50;;;11.60;;
70543;SDS011;58097;48.364;-1.224;2023-01-29T14:31:28;17.48;;;10.50;;
70543;SDS011;58097;48.364;-1.224;2023-01-29T14:34:01;17.30;;;10.48;;
70543;SDS011;58097;48.364;-1.224;2023-01-29T14:36:28;17.60;;;12.07;;
70543;SDS011;58097;48.364;-1.224;2023-01-29T14:39:02;16.80;;;10.88;;
70543;SDS011;58097;48.364;-1.224;2023-01-29T14:41:29;19.67;;;12.98;;
70543;SDS011;58097;48.364;-1.224;2023-01-29T14:49:52;20.88;;;11.60;;
70543;SDS011;58097;48.364;-1.224;2023-01-29T14:52:32;28.55;;;15.32;;
70543;SDS011;58097;48.364;-1.224;2023-01-29T14:55:03;18.50;;;11.77;;
70543;SDS011;58097;48.364;-1.224;2023-01-29T14:57:32;22.55;;;13.98;;
70543;SDS011;58097;48.364;-1.224;2023-01-29T15:00:00;20.05;;;12.40;;
70543;SDS011;58097;48.364;-1.224;2023-01-29T15:03:03;18.55;;;11.32;;
70543;SDS011;58097;48.364;-1.224;2023-01-29T15:05:24;19.17;;;13.32;;
70543;SDS011;58097;48.364;-1.224;2023-01-29T15:07:55;23.95;;;12.68;;
70543;SDS011;58097;48.364;-1.224;2023-01-29T15:10:44;23.30;;;13.48;;
70543;SDS011;58097;48.364;-1.224;2023-01-29T15:13:37;22.88;;;13.18;;
70543;SDS011;58097;48.364;-1.224;2023-01-29T15:16:29;25.90;;;12.38;;
70543;SDS011;58097;48.364;-1.224;2023-01-29T15:19:06;16.10;;;10.95;;
70543;SDS011;58097;48.364;-1.224;2023-01-29T15:22:00;18.70;;;13.40;;
70543;SDS011;58097;48.364;-1.224;2023-01-29T15:25:09;29.58;;;15.43;;
70543;SDS011;58097;48.364;-1.224;2023-01-29T15:27:40;27.95;;;14.77;;
70543;SDS011;58097;48.364;-1.224;2023-01-29T15:30:06;28.42;;;16.45;;
70543;SDS011;58097;48.364;-1.224;2023-01-29T15:32:40;26.45;;;16.38;;
70543;SDS011;58097;48.364;-1.224;2023-01-29T15:35:10;28.13;;;17.98;;
70543;SDS011;58097;48.364;-1.224;2023-01-29T15:38:02;26.65;;;14.95;;
70543;SDS011;58097;48.364;-1.224;2023-01-29T15:40:38;31.63;;;17.60;;
70543;SDS011;58097;48.364;-1.224;2023-01-29T15:43:16;30.75;;;18.10;;
70543;SDS011;58097;48.364;-1.224;2023-01-29T15:45:44;24.80;;;15.65;;
70543;SDS011;58097;48.364;-1.224;2023-01-29T15:48:12;21.33;;;14.07;;
70543;SDS011;58097;48.364;-1.224;2023-01-29T15:50:41;23.88;;;13.20;;
70543;SDS011;58097;48.364;-1.224;2023-01-29T15:53:11;22.95;;;13.95;;
70543;SDS011;58097;48.364;-1.224;2023-01-29T15:55:42;22.50;;;14.25;;
70543;SDS011;58097;48.364;-1.224;2023-01-29T15:58:13;24.23;;;12.85;;
70543;SDS011;58097;48.364;-1.224;2023-01-29T16:00:47;24.83;;;15.80;;
70543;SDS011;58097;48.364;-1.224;2023-01-29T16:03:14;25.88;;;14.75;;
70543;SDS011;58097;48.364;-1.224;2023-01-29T16:05:40;22.60;;;14.80;;
70543;SDS011;58097;48.364;-1.224;2023-01-29T16:08:06;23.63;;;15.00;;
70543;SDS011;58097;48.364;-1.224;2023-01-29T16:10:36;25.40;;;14.98;;
70543;SDS011;58097;48.364;-1.224;2023-01-29T16:13:04;27.88;;;15.05;;
70543;SDS011;58097;48.364;-1.224;2023-01-29T16:15:37;22.05;;;14.23;;
70543;SDS011;58097;48.364;-1.224;2023-01-29T16:18:18;24.08;;;14.23;;
70543;SDS011;58097;48.364;-1.224;2023-01-29T16:20:49;21.75;;;13.82;;
70543;SDS011;58097;48.364;-1.224;2023-01-29T16:23:18;18.63;;;12.20;;
70543;SDS011;58097;48.364;-1.224;2023-01-29T16:25:48;23.45;;;14.80;;
70543;SDS011;58097;48.364;-1.224;2023-01-29T16:28:15;29.50;;;14.43;;
70543;SDS011;58097;48.364;-1.224;2023-01-29T16:30:42;26.00;;;14.10;;
70543;SDS011;58097;48.364;-1.224;2023-01-29T16:33:10;25.30;;;15.27;;
70543;SDS011;58097;48.364;-1.224;2023-01-29T16:35:37;22.40;;;15.05;;
70543;SDS011;58097;48.364;-1.224;2023-01-29T16:38:05;29.20;;;17.15;;
70543;SDS011;58097;48.364;-1.224;2023-01-29T16:40:40;89.10;;;39.50;;
70543;SDS011;58097;48.364;-1.224;2023-01-29T16:46:46;80.43;;;31.48;;
70543;SDS011;58097;48.364;-1.224;2023-01-29T16:51:53;45.13;;;21.40;;
70543;SDS011;58097;48.364;-1.224;2023-01-29T16:54:21;28.85;;;16.83;;
70543;SDS011;58097;48.364;-1.224;2023-01-29T16:56:49;26.30;;;15.77;;
70543;SDS011;58097;48.364;-1.224;2023-01-29T16:59:20;27.05;;;16.00;;
70543;SDS011;58097;48.364;-1.224;2023-01-29T17:01:51;22.88;;;13.23;;
70543;SDS011;58097;48.364;-1.224;2023-01-29T17:04:18;20.05;;;13.65;;
70543;SDS011;58097;48.364;-1.224;2023-01-29T17:06:45;23.02;;;13.18;;
70543;SDS011;58097;48.364;-1.224;2023-01-29T17:11:54;25.58;;;14.85;;
70543;SDS011;58097;48.364;-1.224;2023-01-29T17:14:22;22.77;;;14.57;;
70543;SDS011;58097;48.364;-1.224;2023-01-29T17:16:53;28.08;;;15.88;;
70543;SDS011;58097;48.364;-1.224;2023-01-29T17:19:19;24.00;;;16.17;;
70543;SDS011;58097;48.364;-1.224;2023-01-29T17:21:45;25.98;;;15.75;;